Time;durP1;ratioP1;P1;durP2;ratioP2;P2;SDS_P1;SDS_P2;PMS_P1;PMS_P2;Temp;Humidity;BMP_temperature;BMP_pressure;BME280_temperature;BME280_humidity;BME280_pressure;Samples;Min_cycle;Max_cycle;Signal;HPM_P1;HPM_P2
2023/10/18 00:00:24;;;;;;;3.67;3.38;;;;;;;;;;5139210;27;20212;-63
2023/10/18 00:02:52;;;;;;;3.47;3.17;;;;;;;;;;5139081;27;20484;-63
2023/10/18 00:05:21;;;;;;;3.47;3.17;;;;;;;;;;5139006;27;20263;-62
2023/10/18 00:07:48;;;;;;;3.50;3.20;;;;;;;;;;5138528;27;20317;-62
2023/10/18 00:10:17;;;;;;;3.80;3.50;;;;;;;;;;5138526;27;20230;-63
2023/10/18 00:12:45;;;;;;;3.30;3.00;;;;;;;;;;5138572;27;20214;-63
2023/10/18 00:15:12;;;;;;;3.50;3.20;;;;;;;;;;5138890;28;20210;-62
2023/10/18 00:17:40;;;;;;;3.58;3.28;;;;;;;;;;5138342;28;20264;-63
2023/10/18 00:20:13;;;;;;;3.40;3.10;;;;;;;;;;5138792;28;20210;-63
2023/10/18 00:22:42;;;;;;;3.40;3.10;;;;;;;;;;5138461;28;20206;-63
2023/10/18 00:25:10;;;;;;;3.67;3.38;;;;;;;;;;5138405;28;20209;-63
2023/10/18 00:27:41;;;;;;;3.25;2.92;;;;;;;;;;5140757;27;20205;-63
2023/10/18 00:30:11;;;;;;;3.63;3.33;;;;;;;;;;5142660;27;20202;-63
2023/10/18 00:32:39;;;;;;;3.70;3.40;;;;;;;;;;5142762;27;20210;-63
2023/10/18 00:35:12;;;;;;;3.80;3.50;;;;;;;;;;5142779;27;20515;-63
2023/10/18 00:37:42;;;;;;;3.53;3.15;;;;;;;;;;5142546;27;20276;-63
2023/10/18 00:40:20;;;;;;;3.80;3.50;;;;;;;;;;5142449;27;20202;-63
2023/10/18 00:42:52;;;;;;;3.53;3.28;;;;;;;;;;5142760;27;20570;-63
2023/10/18 00:45:21;;;;;;;3.25;3.05;;;;;;;;;;5142493;27;20202;-63
2023/10/18 00:47:49;;;;;;;3.85;3.45;;;;;;;;;;5142299;27;20199;-63
2023/10/18 00:50:18;;;;;;;3.50;3.25;;;;;;;;;;5142014;27;20216;-63
2023/10/18 00:52:46;;;;;;;3.72;3.42;;;;;;;;;;5142118;27;20221;-63
2023/10/18 00:55:13;;;;;;;3.53;3.22;;;;;;;;;;5142327;27;20202;-63
2023/10/18 00:57:40;;;;;;;4.28;3.50;;;;;;;;;;5142478;27;20232;-63
2023/10/18 01:00:12;;;;;;;3.33;3.03;;;;;;;;;;5142254;27;20202;-63
2023/10/18 01:02:42;;;;;;;3.03;2.83;;;;;;;;;;5142370;27;20202;-63
2023/10/18 01:05:15;;;;;;;3.83;3.53;;;;;;;;;;5141871;27;20234;-63
2023/10/18 01:07:45;;;;;;;3.33;3.03;;;;;;;;;;5142161;27;20225;-63
2023/10/18 01:10:13;;;;;;;3.80;3.50;;;;;;;;;;5141911;27;20618;-63
2023/10/18 01:12:42;;;;;;;3.53;3.22;;;;;;;;;;5142007;27;20267;-63
2023/10/18 01:15:19;;;;;;;3.53;3.22;;;;;;;;;;5141957;27;20226;-63
2023/10/18 01:17:47;;;;;;;3.33;3.03;;;;;;;;;;5141893;27;20234;-63
2023/10/18 01:20:33;;;;;;;3.47;3.22;;;;;;;;;;5141802;27;20214;-63
2023/10/18 01:23:01;;;;;;;3.47;3.20;;;;;;;;;;5141799;27;20255;-63
2023/10/18 01:25:30;;;;;;;3.28;2.97;;;;;;;;;;5141967;27;20206;-63
2023/10/18 01:27:58;;;;;;;3.72;3.38;;;;;;;;;;5141901;27;20198;-63
2023/10/18 01:30:26;;;;;;;3.67;3.38;;;;;;;;;;5141772;27;20209;-63
2023/10/18 01:32:54;;;;;;;3.72;3.42;;;;;;;;;;5141676;27;20212;-63
2023/10/18 01:35:22;;;;;;;3.83;3.53;;;;;;;;;;5141582;27;20213;-63
2023/10/18 01:37:53;;;;;;;3.63;3.42;;;;;;;;;;5141262;27;20325;-63
2023/10/18 01:40:23;;;;;;;3.63;3.33;;;;;;;;;;5140952;27;20552;-63
2023/10/18 01:42:55;;;;;;;4.88;3.72;;;;;;;;;;5141419;27;20206;-63
2023/10/18 01:45:23;;;;;;;3.72;3.42;;;;;;;;;;5141763;27;20202;-63
2023/10/18 01:47:52;;;;;;;3.78;3.47;;;;;;;;;;5141652;27;20520;-62
2023/10/18 01:50:21;;;;;;;3.95;3.65;;;;;;;;;;5141543;27;20498;-62
2023/10/18 01:52:50;;;;;;;3.10;2.90;;;;;;;;;;5141364;27;20202;-63
2023/10/18 01:55:17;;;;;;;4.03;3.60;;;;;;;;;;5141435;27;20536;-63
2023/10/18 01:57:45;;;;;;;4.05;3.67;;;;;;;;;;5141140;27;20601;-63
2023/10/18 02:00:18;;;;;;;3.92;3.53;;;;;;;;;;5141142;27;20202;-63
2023/10/18 02:02:47;;;;;;;3.40;3.10;;;;;;;;;;5140930;27;20218;-63
2023/10/18 02:05:16;;;;;;;3.35;3.10;;;;;;;;;;5141314;27;20537;-63
2023/10/18 02:07:47;;;;;;;3.60;3.30;;;;;;;;;;5141241;27;20199;-63
2023/10/18 02:10:21;;;;;;;3.53;3.22;;;;;;;;;;5140755;27;20249;-63
2023/10/18 02:12:48;;;;;;;3.70;3.40;;;;;;;;;;5141004;27;20446;-63
2023/10/18 02:15:17;;;;;;;3.70;3.40;;;;;;;;;;5140948;27;20249;-63
2023/10/18 02:17:51;;;;;;;3.70;3.40;;;;;;;;;;5140946;27;20237;-63
2023/10/18 02:20:26;;;;;;;3.75;3.45;;;;;;;;;;5140815;27;20210;-63
2023/10/18 02:22:59;;;;;;;4.05;3.67;;;;;;;;;;5140647;27;20308;-63
2023/10/18 02:28:22;;;;;;;3.83;3.53;;;;;;;;;;5136913;27;20277;-63
2023/10/18 02:30:55;;;;;;;3.35;3.05;;;;;;;;;;5140327;27;20202;-63
2023/10/18 02:33:33;;;;;;;3.40;3.10;;;;;;;;;;5140363;27;20202;-62
2023/10/18 02:36:05;;;;;;;3.80;3.50;;;;;;;;;;5140534;27;20208;-62
2023/10/18 02:38:32;;;;;;;3.58;3.28;;;;;;;;;;5140446;27;20202;-62
2023/10/18 02:41:04;;;;;;;3.92;3.63;;;;;;;;;;5140280;27;20203;-62
2023/10/18 02:43:32;;;;;;;4.15;3.85;;;;;;;;;;5140446;27;20570;-63
2023/10/18 02:46:06;;;;;;;4.00;3.70;;;;;;;;;;5139968;27;20202;-63
2023/10/18 02:48:34;;;;;;;3.70;3.40;;;;;;;;;;5140120;27;20275;-63
2023/10/18 02:51:02;;;;;;;3.70;3.40;;;;;;;;;;5138952;27;20623;-63
2023/10/18 02:53:29;;;;;;;3.78;3.47;;;;;;;;;;5139839;27;20209;-63
2023/10/18 02:55:57;;;;;;;3.60;3.30;;;;;;;;;;5139798;27;20210;-62
2023/10/18 02:58:28;;;;;;;4.00;3.70;;;;;;;;;;5139844;27;20226;-62
2023/10/18 03:01:02;;;;;;;4.10;3.80;;;;;;;;;;5140063;27;20263;-62
2023/10/18 03:03:31;;;;;;;3.83;3.53;;;;;;;;;;5139943;27;20202;-62
2023/10/18 03:06:05;;;;;;;3.80;3.50;;;;;;;;;;5139554;27;20266;-63
2023/10/18 03:08:32;;;;;;;3.90;3.60;;;;;;;;;;5139888;27;20324;-63
2023/10/18 03:11:03;;;;;;;4.05;3.65;;;;;;;;;;5139049;27;20240;-63
2023/10/18 03:13:31;;;;;;;3.60;3.30;;;;;;;;;;5139385;27;20475;-62
2023/10/18 03:16:06;;;;;;;3.97;3.65;;;;;;;;;;5139595;27;20202;-62
2023/10/18 03:18:37;;;;;;;3.90;3.58;;;;;;;;;;5139771;27;20221;-62
2023/10/18 03:21:07;;;;;;;3.83;3.53;;;;;;;;;;5139692;27;20241;-62
2023/10/18 03:23:44;;;;;;;4.72;4.32;;;;;;;;;;5139232;27;20221;-62
2023/10/18 03:26:11;;;;;;;3.70;3.40;;;;;;;;;;5138178;27;20284;-62
2023/10/18 03:28:41;;;;;;;3.92;3.63;;;;;;;;;;5138356;27;20202;-62
2023/10/18 03:31:21;;;;;;;4.25;3.85;;;;;;;;;;5138890;27;20266;-62
2023/10/18 03:33:53;;;;;;;3.90;3.60;;;;;;;;;;5138848;27;20530;-62
2023/10/18 03:36:22;;;;;;;3.90;3.60;;;;;;;;;;5138772;27;20569;-63
2023/10/18 03:38:54;;;;;;;3.45;3.15;;;;;;;;;;5138806;27;20216;-63
2023/10/18 03:41:25;;;;;;;3.80;3.50;;;;;;;;;;5138461;27;20214;-63
2023/10/18 03:44:03;;;;;;;3.95;3.60;;;;;;;;;;5139283;27;20231;-62
2023/10/18 03:46:38;;;;;;;3.90;3.58;;;;;;;;;;5138141;27;20210;-62
2023/10/18 03:49:10;;;;;;;4.07;3.67;;;;;;;;;;5138474;27;20214;-62
2023/10/18 03:51:39;;;;;;;3.95;3.53;;;;;;;;;;5138094;27;20597;-62
2023/10/18 03:54:08;;;;;;;3.65;3.38;;;;;;;;;;5138625;27;20213;-62
2023/10/18 03:56:38;;;;;;;4.15;3.78;;;;;;;;;;5138307;27;20210;-62
2023/10/18 03:59:19;;;;;;;3.80;3.50;;;;;;;;;;5138281;27;20263;-63
2023/10/18 04:01:56;;;;;;;3.92;3.63;;;;;;;;;;5138182;27;20206;-63
2023/10/18 04:04:25;;;;;;;3.60;3.30;;;;;;;;;;5138418;27;20201;-62
2023/10/18 04:06:58;;;;;;;3.72;3.42;;;;;;;;;;5138137;27;20199;-62
2023/10/18 04:09:26;;;;;;;3.90;3.60;;;;;;;;;;5138002;27;20297;-63
2023/10/18 04:11:53;;;;;;;3.72;3.42;;;;;;;;;;5137813;27;20241;-63
2023/10/18 04:14:23;;;;;;;4.03;3.70;;;;;;;;;;5137676;27;20488;-62
2023/10/18 04:16:57;;;;;;;3.58;3.28;;;;;;;;;;5137797;28;20202;-62
2023/10/18 04:19:26;;;;;;;3.83;3.53;;;;;;;;;;5137527;28;20206;-63
2023/10/18 04:21:54;;;;;;;4.15;3.75;;;;;;;;;;5137258;28;20231;-62
2023/10/18 04:24:21;;;;;;;3.42;3.20;;;;;;;;;;5137365;28;20241;-62
2023/10/18 04:26:50;;;;;;;4.05;3.70;;;;;;;;;;5137962;28;20202;-62
2023/10/18 04:29:25;;;;;;;3.60;3.30;;;;;;;;;;5137430;28;20206;-62
2023/10/18 04:31:56;;;;;;;4.00;3.70;;;;;;;;;;5136788;28;20202;-62
2023/10/18 04:34:24;;;;;;;3.42;3.17;;;;;;;;;;5137067;28;20220;-62
2023/10/18 04:36:55;;;;;;;3.45;3.25;;;;;;;;;;5136953;28;20213;-63
2023/10/18 04:39:27;;;;;;;3.90;3.60;;;;;;;;;;5137441;28;20245;-62
2023/10/18 04:41:54;;;;;;;3.97;3.67;;;;;;;;;;5136443;28;20201;-63
2023/10/18 04:44:23;;;;;;;3.53;3.33;;;;;;;;;;5136381;28;20202;-63
2023/10/18 04:46:55;;;;;;;3.90;3.60;;;;;;;;;;5136237;28;20240;-62
2023/10/18 04:49:38;;;;;;;3.53;3.22;;;;;;;;;;5135961;28;20616;-62
2023/10/18 04:52:08;;;;;;;4.07;3.67;;;;;;;;;;5136211;28;20278;-62
2023/10/18 04:54:38;;;;;;;3.78;3.47;;;;;;;;;;5135787;28;20209;-63
2023/10/18 04:57:10;;;;;;;4.32;3.92;;;;;;;;;;5135500;28;20277;-63
2023/10/18 04:59:45;;;;;;;4.13;3.83;;;;;;;;;;5136271;28;20202;-62
2023/10/18 05:02:17;;;;;;;3.83;3.53;;;;;;;;;;5136346;28;20213;-62
2023/10/18 05:04:46;;;;;;;3.90;3.60;;;;;;;;;;5135276;28;20214;-63
2023/10/18 05:07:14;;;;;;;3.90;3.60;;;;;;;;;;5135037;28;20253;-63
2023/10/18 05:09:43;;;;;;;3.85;3.50;;;;;;;;;;5136565;28;20202;-63
2023/10/18 05:12:27;;;;;;;3.83;3.53;;;;;;;;;;5135949;28;20305;-63
2023/10/18 05:15:07;;;;;;;3.78;3.40;;;;;;;;;;5137889;27;20220;-63
2023/10/18 05:17:39;;;;;;;3.75;3.45;;;;;;;;;;5138944;27;20316;-63
2023/10/18 05:20:21;;;;;;;3.60;3.30;;;;;;;;;;5138507;27;20213;-63
2023/10/18 05:22:52;;;;;;;4.10;3.78;;;;;;;;;;5139127;27;20547;-63
2023/10/18 05:25:29;;;;;;;3.92;3.53;;;;;;;;;;5138853;27;20228;-62
2023/10/18 05:28:13;;;;;;;4.78;4.05;;;;;;;;;;5139481;27;20201;-62
2023/10/18 05:36:29;;;;;;;3.95;3.55;;;;;;;;;;5138818;27;20751;-62
2023/10/18 05:39:18;;;;;;;3.58;3.20;;;;;;;;;;5137915;27;20222;-62
2023/10/18 05:41:45;;;;;;;3.85;3.53;;;;;;;;;;5137670;27;20510;-67
2023/10/18 05:44:14;;;;;;;4.95;3.40;;;;;;;;;;5137957;27;20205;-62
2023/10/18 05:46:41;;;;;;;3.97;3.58;;;;;;;;;;5138077;27;20583;-62
2023/10/18 05:49:15;;;;;;;4.47;3.92;;;;;;;;;;5138096;27;20238;-62
2023/10/18 05:51:52;;;;;;;4.50;3.55;;;;;;;;;;5138211;27;20584;-62
2023/10/18 05:54:22;;;;;;;4.80;3.70;;;;;;;;;;5138001;27;20194;-63
2023/10/18 05:56:54;;;;;;;4.03;3.28;;;;;;;;;;5137905;27;20209;-62
2023/10/18 05:59:33;;;;;;;3.90;3.60;;;;;;;;;;5138170;27;20225;-62
2023/10/18 06:02:08;;;;;;;3.97;3.40;;;;;;;;;;5137712;27;20265;-62
2023/10/18 06:04:42;;;;;;;3.65;3.35;;;;;;;;;;5137282;27;20304;-62
2023/10/18 06:07:10;;;;;;;3.67;3.38;;;;;;;;;;5138331;27;20302;-62
2023/10/18 06:09:53;;;;;;;4.25;3.50;;;;;;;;;;5138215;27;20213;-62
2023/10/18 06:12:22;;;;;;;3.50;3.20;;;;;;;;;;5118178;28;21192;-62
2023/10/18 06:14:52;;;;;;;5.38;4.32;;;;;;;;;;5117546;28;20264;-62
2023/10/18 06:17:22;;;;;;;4.05;3.65;;;;;;;;;;5117770;28;20323;-62
2023/10/18 06:19:50;;;;;;;3.97;3.60;;;;;;;;;;5117957;28;20574;-62
2023/10/18 06:22:27;;;;;;;3.85;3.55;;;;;;;;;;5118150;28;20199;-62
2023/10/18 06:24:57;;;;;;;3.95;3.50;;;;;;;;;;5117405;28;20206;-62
2023/10/18 06:27:24;;;;;;;4.25;3.40;;;;;;;;;;5118097;28;20620;-62
2023/10/18 06:29:53;;;;;;;3.83;3.53;;;;;;;;;;5118092;28;20203;-62
2023/10/18 06:32:24;;;;;;;4.72;3.80;;;;;;;;;;5117228;28;20203;-62
2023/10/18 06:34:56;;;;;;;4.97;3.60;;;;;;;;;;5117706;28;20518;-62
2023/10/18 06:37:24;;;;;;;4.03;3.63;;;;;;;;;;5117808;28;20238;-62
2023/10/18 06:39:55;;;;;;;3.63;3.33;;;;;;;;;;5117146;28;20238;-62
2023/10/18 06:42:27;;;;;;;4.07;3.70;;;;;;;;;;5117631;28;20226;-62
2023/10/18 06:44:55;;;;;;;4.05;3.65;;;;;;;;;;5117905;28;20234;-62
2023/10/18 06:47:31;;;;;;;4.10;3.50;;;;;;;;;;5117177;28;20264;-62
2023/10/18 06:50:04;;;;;;;4.50;3.80;;;;;;;;;;5117305;28;20206;-62
2023/10/18 06:52:44;;;;;;;4.00;3.67;;;;;;;;;;5116986;28;20229;-62
2023/10/18 06:55:16;;;;;;;3.58;3.28;;;;;;;;;;5116518;28;20194;-62
2023/10/18 06:57:49;;;;;;;3.88;3.53;;;;;;;;;;5117238;28;20280;-62
2023/10/18 07:00:17;;;;;;;4.47;4.15;;;;;;;;;;5116867;28;20199;-62
2023/10/18 07:02:45;;;;;;;3.40;3.20;;;;;;;;;;5117867;28;20202;-62
2023/10/18 07:05:13;;;;;;;4.05;3.65;;;;;;;;;;5116743;28;20203;-62
2023/10/18 07:07:42;;;;;;;4.93;4.13;;;;;;;;;;5117017;28;20202;-62
2023/10/18 07:10:20;;;;;;;4.20;3.90;;;;;;;;;;5116516;28;20341;-62
2023/10/18 07:12:52;;;;;;;4.35;3.95;;;;;;;;;;5116839;28;20205;-63
2023/10/18 07:15:22;;;;;;;3.80;3.50;;;;;;;;;;5116514;28;20206;-62
2023/10/18 07:17:52;;;;;;;4.50;4.10;;;;;;;;;;5117072;28;20315;-62
2023/10/18 07:20:21;;;;;;;4.30;3.90;;;;;;;;;;5117176;28;20275;-62
2023/10/18 07:22:54;;;;;;;4.18;3.88;;;;;;;;;;5117084;28;20211;-62
2023/10/18 07:25:26;;;;;;;4.40;4.00;;;;;;;;;;5116931;28;20788;-62
2023/10/18 07:27:56;;;;;;;4.10;3.63;;;;;;;;;;5116838;28;20198;-62
2023/10/18 07:30:37;;;;;;;4.30;3.90;;;;;;;;;;5116396;28;20218;-62
2023/10/18 07:33:09;;;;;;;4.25;3.75;;;;;;;;;;5116059;28;20290;-62
2023/10/18 07:35:37;;;;;;;4.47;4.07;;;;;;;;;;5115994;28;20306;-62
2023/10/18 07:38:05;;;;;;;4.30;4.00;;;;;;;;;;5115273;28;20262;-62
2023/10/18 07:40:36;;;;;;;4.30;4.00;;;;;;;;;;5116794;28;20575;-62
2023/10/18 07:43:12;;;;;;;3.88;3.55;;;;;;;;;;5116221;28;20230;-62
2023/10/18 07:45:40;;;;;;;3.88;3.58;;;;;;;;;;5115868;28;20203;-62
2023/10/18 07:48:11;;;;;;;5.20;3.88;;;;;;;;;;5115805;28;20207;-62
2023/10/18 07:50:49;;;;;;;3.70;3.40;;;;;;;;;;5115982;28;20230;-62
2023/10/18 07:53:20;;;;;;;4.10;3.70;;;;;;;;;;5116305;28;20290;-62
2023/10/18 07:55:48;;;;;;;4.65;4.25;;;;;;;;;;5115654;28;20586;-62
2023/10/18 07:58:22;;;;;;;4.07;3.78;;;;;;;;;;5115800;28;20223;-62
2023/10/18 08:03:31;;;;;;;4.15;3.75;;;;;;;;;;5114615;28;20593;-63
2023/10/18 08:06:06;;;;;;;7.68;3.92;;;;;;;;;;5116387;28;20525;-62
2023/10/18 08:08:36;;;;;;;4.60;3.85;;;;;;;;;;5115149;28;20205;-62
2023/10/18 08:11:06;;;;;;;4.03;3.72;;;;;;;;;;5127951;27;20241;-62
2023/10/18 08:13:44;;;;;;;4.40;4.00;;;;;;;;;;5136007;27;20214;-62
2023/10/18 08:16:19;;;;;;;3.80;3.45;;;;;;;;;;5136042;27;20214;-62
2023/10/18 08:18:52;;;;;;;4.88;4.47;;;;;;;;;;5136733;27;20520;-62
2023/10/18 08:21:36;;;;;;;4.57;4.15;;;;;;;;;;5136468;28;20665;-62
2023/10/18 08:24:08;;;;;;;4.20;3.90;;;;;;;;;;5136815;27;20270;-62
2023/10/18 08:26:46;;;;;;;3.97;3.67;;;;;;;;;;5137089;27;20481;-62
2023/10/18 08:29:15;;;;;;;4.20;3.80;;;;;;;;;;5135864;27;20198;-62
2023/10/18 08:31:48;;;;;;;4.65;3.92;;;;;;;;;;5136711;27;20202;-62
2023/10/18 08:34:16;;;;;;;4.75;4.15;;;;;;;;;;5136051;27;20202;-62
2023/10/18 08:36:44;;;;;;;3.80;3.50;;;;;;;;;;5136639;27;20330;-62
2023/10/18 08:39:13;;;;;;;4.68;4.03;;;;;;;;;;5136348;27;20222;-62
2023/10/18 08:41:44;;;;;;;4.38;3.97;;;;;;;;;;5136477;27;20276;-62
2023/10/18 08:44:18;;;;;;;3.95;3.60;;;;;;;;;;5136383;27;20203;-62
2023/10/18 08:46:55;;;;;;;3.85;3.55;;;;;;;;;;5135661;27;20213;-62
2023/10/18 08:49:32;;;;;;;3.95;3.65;;;;;;;;;;5138118;27;20565;-62
2023/10/18 08:52:06;;;;;;;4.38;3.97;;;;;;;;;;5140816;27;20304;-62
2023/10/18 08:54:34;;;;;;;4.00;3.55;;;;;;;;;;5139891;27;20296;-62
2023/10/18 08:57:07;;;;;;;4.22;3.83;;;;;;;;;;5140624;27;20229;-62
2023/10/18 08:59:45;;;;;;;3.78;3.30;;;;;;;;;;5139900;27;20273;-62
2023/10/18 09:02:18;;;;;;;4.05;3.67;;;;;;;;;;5139669;27;20206;-62
2023/10/18 09:04:46;;;;;;;3.63;3.33;;;;;;;;;;5140461;27;20233;-62
2023/10/18 09:07:21;;;;;;;4.88;4.35;;;;;;;;;;5131287;27;20700;-62
2023/10/18 09:09:57;;;;;;;4.40;4.00;;;;;;;;;;5117754;28;20558;-62
2023/10/18 09:13:08;;;;;;;4.10;3.70;;;;;;;;;;5118753;28;20203;-62
2023/10/18 09:15:27;;;;;;;3.63;3.33;;;;;;;;;;5118272;28;20583;-62
2023/10/18 09:17:56;;;;;;;4.32;3.92;;;;;;;;;;5118669;28;20232;-62
2023/10/18 09:20:26;;;;;;;3.90;3.60;;;;;;;;;;5118406;28;20223;-62
2023/10/18 09:22:54;;;;;;;3.88;3.47;;;;;;;;;;5118528;28;20203;-62
2023/10/18 09:25:24;;;;;;;3.85;3.40;;;;;;;;;;5118261;28;20210;-62
2023/10/18 09:27:52;;;;;;;3.92;3.63;;;;;;;;;;5119390;28;20685;-62
2023/10/18 09:30:20;;;;;;;3.70;3.40;;;;;;;;;;5118735;28;20206;-62
2023/10/18 09:32:49;;;;;;;3.92;3.55;;;;;;;;;;5118227;28;20698;-62
2023/10/18 09:35:26;;;;;;;4.05;3.75;;;;;;;;;;5118181;28;20260;-62
2023/10/18 09:37:54;;;;;;;3.88;3.38;;;;;;;;;;5117892;28;20213;-62
2023/10/18 09:40:22;;;;;;;3.90;3.60;;;;;;;;;;5117476;28;20258;-62
2023/10/18 09:42:50;;;;;;;4.03;3.60;;;;;;;;;;5117315;28;20254;-62
2023/10/18 09:45:20;;;;;;;3.53;3.22;;;;;;;;;;5117586;28;20226;-62
2023/10/18 09:47:47;;;;;;;4.35;3.40;;;;;;;;;;5117623;28;20242;-62
2023/10/18 09:50:23;;;;;;;3.42;3.03;;;;;;;;;;5117991;28;20207;-62
2023/10/18 09:52:57;;;;;;;4.28;3.88;;;;;;;;;;5118032;28;20209;-62
2023/10/18 09:55:26;;;;;;;3.70;3.40;;;;;;;;;;5116968;28;20280;-62
2023/10/18 09:58:02;;;;;;;3.80;3.50;;;;;;;;;;5117824;28;20594;-62
2023/10/18 10:00:31;;;;;;;3.47;3.17;;;;;;;;;;5117256;28;20253;-62
2023/10/18 10:02:59;;;;;;;3.70;3.20;;;;;;;;;;5117178;28;20211;-62
2023/10/18 10:05:27;;;;;;;4.05;3.20;;;;;;;;;;5118333;28;20203;-62
2023/10/18 10:08:05;;;;;;;3.40;3.10;;;;;;;;;;5117946;28;20210;-63
2023/10/18 10:10:44;;;;;;;3.55;3.25;;;;;;;;;;5117236;28;20223;-62
2023/10/18 10:13:18;;;;;;;3.80;3.28;;;;;;;;;;5117520;28;20230;-62
2023/10/18 10:15:46;;;;;;;3.33;2.90;;;;;;;;;;5117051;28;20202;-62
2023/10/18 10:18:14;;;;;;;3.40;3.10;;;;;;;;;;5117603;28;20225;-62
2023/10/18 10:20:43;;;;;;;3.20;2.90;;;;;;;;;;5117102;28;20592;-62
2023/10/18 10:23:15;;;;;;;3.28;2.97;;;;;;;;;;5116720;28;20285;-62
2023/10/18 10:25:49;;;;;;;3.38;3.08;;;;;;;;;;5116285;28;20207;-62
2023/10/18 10:28:37;;;;;;;3.58;3.10;;;;;;;;;;5117207;28;20210;-62
2023/10/18 10:31:04;;;;;;;3.22;2.92;;;;;;;;;;5116205;28;20792;-62
2023/10/18 10:33:47;;;;;;;3.28;2.90;;;;;;;;;;5116082;28;20241;-62
2023/10/18 10:36:14;;;;;;;2.95;2.75;;;;;;;;;;5114958;28;20195;-62
2023/10/18 10:38:56;;;;;;;3.22;2.92;;;;;;;;;;5116091;28;20301;-62
2023/10/18 10:41:30;;;;;;;3.13;2.83;;;;;;;;;;5114574;28;20199;-62
2023/10/18 10:44:11;;;;;;;2.72;2.28;;;;;;;;;;5115742;28;20817;-62
2023/10/18 10:46:39;;;;;;;3.03;2.83;;;;;;;;;;5114913;28;20194;-62
2023/10/18 10:49:41;;;;;;;2.70;2.47;;;;;;;;;;5115152;28;20492;-62
2023/10/18 10:52:09;;;;;;;3.10;2.60;;;;;;;;;;5115610;28;20202;-62
2023/10/18 10:54:40;;;;;;;2.72;2.53;;;;;;;;;;5115387;28;20199;-62
2023/10/18 10:57:08;;;;;;;2.97;2.67;;;;;;;;;;5116338;28;20222;-62
2023/10/18 10:59:42;;;;;;;2.60;2.40;;;;;;;;;;5116648;28;20227;-62
2023/10/18 11:02:10;;;;;;;2.70;2.50;;;;;;;;;;5116044;28;20264;-62
2023/10/18 11:04:46;;;;;;;2.58;2.13;;;;;;;;;;5115816;28;20284;-62
2023/10/18 11:07:18;;;;;;;2.47;2.28;;;;;;;;;;5115321;28;20236;-62
2023/10/18 11:09:50;;;;;;;3.08;2.78;;;;;;;;;;5115603;28;20267;-62
2023/10/18 11:12:18;;;;;;;2.80;2.60;;;;;;;;;;5115126;28;20250;-62
2023/10/18 11:14:50;;;;;;;2.72;2.35;;;;;;;;;;5115114;28;20207;-62
2023/10/18 11:17:18;;;;;;;2.70;2.50;;;;;;;;;;5115864;28;20305;-62
2023/10/18 11:19:51;;;;;;;2.55;2.35;;;;;;;;;;5116108;28;20691;-62
2023/10/18 11:22:19;;;;;;;3.13;2.40;;;;;;;;;;5115962;28;20203;-62
2023/10/18 11:24:49;;;;;;;2.85;2.65;;;;;;;;;;5115910;28;20292;-62
2023/10/18 11:27:19;;;;;;;2.42;2.22;;;;;;;;;;5115170;28;20262;-62
2023/10/18 11:29:52;;;;;;;3.17;2.95;;;;;;;;;;5115700;28;20225;-62
2023/10/18 11:32:19;;;;;;;2.67;2.42;;;;;;;;;;5115227;28;20230;-62
2023/10/18 11:34:47;;;;;;;3.30;2.70;;;;;;;;;;5115233;28;20339;-62
2023/10/18 11:37:34;;;;;;;2.60;2.40;;;;;;;;;;5114530;28;20194;-62
2023/10/18 11:40:06;;;;;;;2.47;2.28;;;;;;;;;;5114785;28;20222;-62
2023/10/18 11:42:49;;;;;;;2.58;2.38;;;;;;;;;;5115037;28;20264;-62
2023/10/18 11:45:20;;;;;;;3.22;2.72;;;;;;;;;;5114436;28;20211;-62
2023/10/18 11:47:51;;;;;;;2.85;2.47;;;;;;;;;;5115249;28;20218;-62
2023/10/18 11:50:21;;;;;;;2.67;2.47;;;;;;;;;;5114404;28;20230;-62
2023/10/18 11:52:49;;;;;;;2.88;2.63;;;;;;;;;;5114955;28;20492;-62
2023/10/18 11:55:19;;;;;;;2.85;2.60;;;;;;;;;;5115032;28;20284;-62
2023/10/18 11:57:47;;;;;;;2.60;2.40;;;;;;;;;;5114625;28;20202;-62
2023/10/18 12:03:05;;;;;;;2.60;2.40;;;;;;;;;;5108667;28;20655;-62
2023/10/18 12:05:33;;;;;;;2.90;2.60;;;;;;;;;;5114146;28;20211;-62
2023/10/18 12:08:05;;;;;;;2.58;2.38;;;;;;;;;;5114859;28;20214;-62
2023/10/18 12:10:36;;;;;;;2.90;2.60;;;;;;;;;;5115118;28;20238;-63
2023/10/18 12:13:06;;;;;;;2.90;2.70;;;;;;;;;;5114932;28;20217;-62
2023/10/18 12:15:33;;;;;;;2.88;2.67;;;;;;;;;;5114950;28;20228;-62
2023/10/18 12:18:04;;;;;;;2.50;2.30;;;;;;;;;;5113939;28;20202;-62
2023/10/18 12:20:36;;;;;;;2.50;2.30;;;;;;;;;;5115415;28;20254;-62
2023/10/18 12:23:04;;;;;;;2.90;2.60;;;;;;;;;;5114121;28;20606;-62
2023/10/18 12:25:32;;;;;;;3.28;2.58;;;;;;;;;;5114715;28;20590;-62
2023/10/18 12:28:02;;;;;;;2.80;2.60;;;;;;;;;;5113571;28;20585;-62
2023/10/18 12:30:33;;;;;;;2.50;2.30;;;;;;;;;;5113971;28;20199;-62
2023/10/18 12:33:05;;;;;;;2.67;2.28;;;;;;;;;;5114201;28;20312;-62
2023/10/18 12:35:34;;;;;;;2.67;2.47;;;;;;;;;;5114465;28;20606;-62
2023/10/18 12:38:13;;;;;;;2.45;2.25;;;;;;;;;;5114612;28;20215;-63
2023/10/18 12:40:50;;;;;;;3.58;2.67;;;;;;;;;;5114232;28;20232;-62
2023/10/18 12:43:19;;;;;;;3.42;2.45;;;;;;;;;;5115211;28;20232;-62
2023/10/18 12:45:50;;;;;;;3.13;2.80;;;;;;;;;;5114660;28;20306;-62
2023/10/18 12:48:22;;;;;;;2.70;2.50;;;;;;;;;;5114422;28;20210;-62
2023/10/18 12:50:53;;;;;;;2.45;2.25;;;;;;;;;;5130097;27;20554;-62
2023/10/18 12:56:18;;;;;;;2.95;2.70;;;;;;;;;;5134153;27;20194;-62
2023/10/18 12:58:47;;;;;;;2.80;2.58;;;;;;;;;;5134975;27;20289;-62
2023/10/18 13:01:15;;;;;;;2.50;2.30;;;;;;;;;;5135517;28;20225;-63
2023/10/18 13:03:44;;;;;;;2.70;2.50;;;;;;;;;;5134579;27;20199;-62
2023/10/18 13:06:16;;;;;;;2.65;2.20;;;;;;;;;;5135425;27;20527;-62
2023/10/18 13:08:55;;;;;;;2.65;2.45;;;;;;;;;;5134200;28;20261;-62
2023/10/18 13:11:46;;;;;;;3.05;2.75;;;;;;;;;;5133670;27;20238;-62
2023/10/18 13:14:14;;;;;;;2.50;2.30;;;;;;;;;;5134557;28;20251;-62
2023/10/18 13:16:42;;;;;;;2.85;2.65;;;;;;;;;;5135202;28;20194;-62
2023/10/18 13:19:14;;;;;;;2.50;2.30;;;;;;;;;;5134151;28;20202;-62
2023/10/18 13:21:43;;;;;;;3.13;2.83;;;;;;;;;;5134572;28;20274;-62
2023/10/18 13:24:28;;;;;;;3.30;3.00;;;;;;;;;;5133131;28;20198;-62
2023/10/18 13:26:59;;;;;;;3.22;2.92;;;;;;;;;;5134312;28;20202;-62
2023/10/18 13:29:30;;;;;;;2.55;2.35;;;;;;;;;;5134048;28;20211;-62
2023/10/18 13:31:58;;;;;;;2.92;2.65;;;;;;;;;;5134938;28;20237;-62
2023/10/18 13:34:32;;;;;;;2.53;2.33;;;;;;;;;;5134130;27;20198;-62
2023/10/18 13:37:04;;;;;;;2.80;2.45;;;;;;;;;;5137454;27;20198;-62
2023/10/18 13:39:31;;;;;;;2.60;2.40;;;;;;;;;;5137541;27;20209;-62
2023/10/18 13:42:00;;;;;;;2.63;2.42;;;;;;;;;;5137316;27;20209;-62
2023/10/18 13:44:29;;;;;;;2.90;2.60;;;;;;;;;;5136969;27;20198;-62
2023/10/18 13:46:57;;;;;;;2.80;2.60;;;;;;;;;;5137999;27;20317;-62
2023/10/18 13:49:24;;;;;;;2.97;2.67;;;;;;;;;;5137499;27;20209;-62
2023/10/18 13:51:52;;;;;;;2.88;2.50;;;;;;;;;;5138503;27;20765;-62
2023/10/18 13:54:22;;;;;;;2.85;2.60;;;;;;;;;;5137688;27;20208;-62
2023/10/18 13:56:49;;;;;;;2.60;2.40;;;;;;;;;;5137304;27;20206;-62
2023/10/18 13:59:17;;;;;;;2.78;2.53;;;;;;;;;;5136438;27;20298;-62
2023/10/18 14:01:49;;;;;;;2.63;2.42;;;;;;;;;;5138238;27;20226;-62
2023/10/18 14:04:24;;;;;;;2.63;2.42;;;;;;;;;;5136983;27;20230;-62
2023/10/18 14:06:54;;;;;;;2.75;2.55;;;;;;;;;;5137576;27;20218;-62
2023/10/18 14:09:24;;;;;;;2.75;2.55;;;;;;;;;;5136993;27;20210;-62
2023/10/18 14:11:52;;;;;;;2.70;2.50;;;;;;;;;;5136220;27;20226;-62
2023/10/18 14:14:20;;;;;;;3.20;2.80;;;;;;;;;;5137369;27;20263;-62
2023/10/18 14:16:48;;;;;;;3.00;2.80;;;;;;;;;;5137265;27;20241;-62
2023/10/18 14:19:19;;;;;;;3.08;2.78;;;;;;;;;;5137013;27;20214;-63
2023/10/18 14:21:48;;;;;;;2.60;2.40;;;;;;;;;;5137608;27;20234;-62
2023/10/18 14:24:17;;;;;;;2.80;2.60;;;;;;;;;;5136518;27;20209;-62
2023/10/18 14:26:46;;;;;;;3.17;2.70;;;;;;;;;;5136288;27;20202;-62
2023/10/18 14:29:13;;;;;;;2.80;2.60;;;;;;;;;;5135835;27;20203;-62
2023/10/18 14:31:41;;;;;;;3.13;2.80;;;;;;;;;;5137041;27;20300;-62
2023/10/18 14:34:09;;;;;;;2.80;2.60;;;;;;;;;;5137724;27;20201;-63
2023/10/18 14:36:36;;;;;;;2.88;2.60;;;;;;;;;;5136348;27;20608;-62
2023/10/18 14:39:04;;;;;;;2.63;2.42;;;;;;;;;;5135981;27;20205;-62
2023/10/18 14:41:31;;;;;;;2.67;2.47;;;;;;;;;;5136094;27;20237;-62
2023/10/18 14:44:00;;;;;;;2.90;2.70;;;;;;;;;;5136865;27;20574;-62
2023/10/18 14:46:29;;;;;;;2.45;2.25;;;;;;;;;;5136296;27;20509;-62
2023/10/18 14:48:58;;;;;;;3.03;2.80;;;;;;;;;;5135677;27;20202;-63
2023/10/18 14:51:26;;;;;;;2.70;2.40;;;;;;;;;;5136679;27;20194;-62
2023/10/18 14:53:53;;;;;;;2.78;2.58;;;;;;;;;;5137412;27;20206;-62
2023/10/18 14:56:22;;;;;;;2.85;2.65;;;;;;;;;;5136543;27;20237;-62
2023/10/18 14:58:50;;;;;;;3.40;3.10;;;;;;;;;;5136195;27;20570;-62
2023/10/18 15:01:19;;;;;;;4.15;3.17;;;;;;;;;;5137152;27;20222;-62
2023/10/18 15:03:48;;;;;;;2.95;2.75;;;;;;;;;;5137411;27;20198;-62
2023/10/18 15:06:18;;;;;;;3.28;3.05;;;;;;;;;;5136387;27;20202;-62
2023/10/18 15:08:45;;;;;;;3.70;3.30;;;;;;;;;;5135488;27;20267;-62
2023/10/18 15:11:14;;;;;;;3.28;2.92;;;;;;;;;;5135855;27;20533;-62
2023/10/18 15:13:46;;;;;;;3.20;3.00;;;;;;;;;;5135587;27;20226;-62
2023/10/18 15:16:14;;;;;;;3.50;3.20;;;;;;;;;;5136486;27;20287;-62
2023/10/18 15:18:46;;;;;;;4.03;3.15;;;;;;;;;;5136608;27;20210;-62
2023/10/18 15:21:14;;;;;;;3.30;3.00;;;;;;;;;;5136198;27;20285;-62
2023/10/18 15:23:43;;;;;;;3.60;3.30;;;;;;;;;;5136127;27;20203;-62